Meacham, OR

5:26 PM PDT on September 23, 2014 (GMT -0700)
Meacham | Change Station
CLOSE
Current Station
Airport
Location: Meacham,
Elevation: 3720 ft
Nearby Weather Stations

Elev 3720 ft 45.51 °N, 118.42 °W | Updated 30 minutes ago

Partly Cloudy
Partly Cloudy
74 °F
Feels Like 74 °F
N
0
Wind Variable Wind from North

Today
High -- | Low -- °F
--% Chance of Precip.
Yesterday
High -- | Low -- °F
Precip. -- in
6:41 AM 6:49 PM
Waning Crescent, 0% visible
Pressure 29.87 in
Visibility 10.0 miles
Clouds Clear
Dew Point 49 °F
Humidity 41%
Rainfall 0.01 in
Snow Depth 0 in , 0 in , 0 in
UV 1 out of 12
Pollen 3.20 out of 12
Air Quality Not available.
Flu Activity Not available.
METAR KMEH 232356Z AUTO 00000KT 10SM CLR 23/09 A2993 RMK AO2 SLP115 T02330094 10250 20189 56013

More Conditions Fewer Conditions

Pressure 29.87 in
Visibility 10.0 miles
Clouds Clear
Dew Point 49 °F
Humidity 41%
Rainfall 0.01 in
Snow Depth 0 in , 0 in , 0 in
UV 1 out of 12
Pollen 3.20 out of 12
Air Quality Not available.
Flu Activity Not available.
METAR KMEH 232356Z AUTO 00000KT 10SM CLR 23/09 A2993 RMK AO2 SLP115 T02330094 10250 20189 56013

More Conditions Fewer Conditions

10-Day Weather Forecast

Almanac

Astronomy

Sep. 23, 2014 Rise Set
Actual Time 6:41 AM PDT 6:49 PM PDT
Civil Twilight 6:12 AM PDT 7:18 PM PDT
Nautical Twilight 5:37 AM PDT 7:53 PM PDT
Astronomical Twilight 5:02 AM PDT 8:28 PM PDT
Moon 6:10 AM PDT (9/23) 6:29 PM PDT (9/23)
Length of Visible Light 13h 06m
Length of Day
12h 07m
Tomorrow will be 3m 10s shorter.
Waning Crescent, 0% of the Moon is Illuminated
Today
Waning Crescent
Sep 24
New
Oct 1
First Quarter
Oct 8
Full
Oct 15
Last Quarter

Today's Extremes

State Highs State Lows

Community

WunderPhotos

Upload Photos

1,755,828 photos uploaded!

WunderBlogs® & News

Nearby

Snow Depth

Station Depth Elevation
Mt. Howard 0 in 7910 ft
Mud Ridge 0 in 3800 ft
Bowman Springs 0 in 4580 ft
Red Hill 0 in 4400 ft
Madison Butte 0 in 5250 ft

Earthquake Activity

City Distance Mag. Time & Date
No recent earthquake activity has been reported nearby.
Minimum magnitude displayed is 2.5.

Coastal Water Temperatures

Place Temperature
No Stations Reporting

Nearby Weather Stations